Time;durP1;ratioP1;P1;durP2;ratioP2;P2;SDS_P1;SDS_P2;PMS_P1;PMS_P2;Temp;Humidity;BMP_temperature;BMP_pressure;BME280_temperature;BME280_humidity;BME280_pressure;Samples;Min_cycle;Max_cycle;Signal;HPM_P1;HPM_P2
2022/12/06 00:02:05;;;;;;;;;;;;;;;3.77;100.00;102119.56;5059057;28;21265;-77
2022/12/06 00:04:30;;;;;;;;;;;;;;;3.78;100.00;102112.59;5055318;28;19975;-77
2022/12/06 00:06:57;;;;;;;;;;;;;;;3.78;100.00;102123.97;5055766;28;20292;-77
2022/12/06 00:09:22;;;;;;;;;;;;;;;3.78;100.00;102120.44;5060414;28;19951;-77
2022/12/06 00:11:48;;;;;;;;;;;;;;;3.79;100.00;102119.56;5061177;28;19931;-77
2022/12/06 00:14:13;;;;;;;;;;;;;;;3.78;100.00;102117.81;5058796;28;19928;-77
2022/12/06 00:16:39;;;;;;;;;;;;;;;3.75;100.00;102113.44;5059937;28;20041;-77
2022/12/06 00:19:04;;;;;;;;;;;;;;;3.74;100.00;102113.44;4990782;28;1992721;-77
2022/12/06 00:21:31;;;;;;;;;;;;;;;3.71;100.00;102110.81;5061808;27;20310;-77
2022/12/06 00:23:58;;;;;;;;;;;;;;;3.68;100.00;102103.81;5056505;28;19928;-78
2022/12/06 00:26:24;;;;;;;;;;;;;;;3.63;100.00;102102.91;5058912;28;20027;-77
2022/12/06 00:28:53;;;;;;;;;;;;;;;3.61;100.00;102109.91;5044676;28;19924;-77
2022/12/06 00:31:20;;;;;;;;;;;;;;;3.58;100.00;102104.63;5058752;28;19931;-77
2022/12/06 00:33:45;;;;;;;;;;;;;;;3.56;100.00;102107.28;5058573;28;20639;-77
2022/12/06 00:36:22;;;;;;;;;;;;;;;3.54;100.00;102103.75;5043204;28;19939;-77
2022/12/06 00:38:47;;;;;;;;;;;;;;;3.52;100.00;102105.50;5058956;28;19924;-77
2022/12/06 00:41:14;;;;;;;;;;;;;;;3.49;100.00;102105.50;5062756;28;20738;-77
2022/12/06 00:43:39;;;;;;;;;;;;;;;3.48;100.00;102095.91;5062414;27;19935;-77
2022/12/06 00:46:05;;;;;;;;;;;;;;;3.45;100.00;102096.75;5058305;28;19928;-77
2022/12/06 00:48:31;;;;;;;;;;;;;;;3.43;100.00;102100.22;5060432;28;19978;-77
2022/12/06 00:50:56;;;;;;;;;;;;;;;3.42;100.00;102093.25;5059902;28;19924;-77
2022/12/06 00:53:22;;;;;;;;;;;;;;;3.41;100.00;102092.38;5066377;28;19978;-77
2022/12/06 00:55:47;;;;;;;;;;;;;;;3.39;100.00;102097.59;5045252;28;19932;-77
2022/12/06 00:58:13;;;;;;;;;;;;;;;3.36;100.00;102094.97;5067916;28;19928;-77
2022/12/06 01:00:39;;;;;;;;;;;;;;;3.36;100.00;102094.06;5062291;28;20397;-78
2022/12/06 01:03:04;;;;;;;;;;;;;;;3.35;100.00;102095.84;5045515;28;19928;-77
2022/12/06 01:05:30;;;;;;;;;;;;;;;3.36;100.00;102094.06;5064415;28;19926;-78
2022/12/06 01:07:56;;;;;;;;;;;;;;;3.36;100.00;102099.31;5052125;28;19982;-79
2022/12/06 01:10:21;;;;;;;;;;;;;;;3.36;100.00;102089.72;5066660;28;20146;-78
2022/12/06 01:12:46;;;;;;;;;;;;;;;3.34;100.00;102094.09;5064594;27;20008;-78
2022/12/06 01:15:12;;;;;;;;;;;;;;;3.35;100.00;102093.22;5063632;27;20002;-78
2022/12/06 01:17:37;;;;;;;;;;;;;;;3.36;100.00;102091.47;5060327;28;20710;-78
2022/12/06 01:20:03;;;;;;;;;;;;;;;3.37;100.00;102091.47;5064649;28;19936;-78
2022/12/06 01:22:29;;;;;;;;;;;;;;;3.37;100.00;102094.09;5062319;28;20316;-78
2022/12/06 01:24:54;;;;;;;;;;;;;;;3.39;100.00;102097.59;5030311;28;20129;-78
2022/12/06 01:27:19;;;;;;;;;;;;;;;3.39;100.00;102094.97;5061549;28;19939;-78
2022/12/06 01:29:45;;;;;;;;;;;;;;;3.38;100.00;102085.38;5064637;28;20963;-78
2022/12/06 01:32:10;;;;;;;;;;;;;;;3.39;100.00;102084.50;5033955;28;20675;-78
2022/12/06 01:34:36;;;;;;;;;;;;;;;3.38;100.00;102082.75;5063799;28;21575;-78
2022/12/06 01:37:01;;;;;;;;;;;;;;;3.42;100.00;102094.09;5061497;28;19932;-78
2022/12/06 01:39:26;;;;;;;;;;;;;;;3.42;100.00;102086.25;5063396;28;19939;-78
2022/12/06 01:41:52;;;;;;;;;;;;;;;3.42;100.00;102086.25;5066365;28;19930;-78
2022/12/06 01:44:36;;;;;;;;;;;;;;;3.42;100.00;102088.88;5067505;28;20064;-78
2022/12/06 01:47:02;;;;;;;;;;;;;;;3.42;100.00;102085.41;5062393;28;20552;-78
2022/12/06 01:49:28;;;;;;;;;;;;;;;3.41;100.00;102081.88;5062890;28;20183;-78
2022/12/06 01:51:55;;;;;;;;;;;;;;;3.41;100.00;102076.66;5062399;28;19998;-78
2022/12/06 01:54:20;;;;;;;;;;;;;;;3.40;100.00;102081.00;5061935;28;19929;-78
2022/12/06 01:56:46;;;;;;;;;;;;;;;3.39;100.00;102068.78;5063937;28;20017;-78
2022/12/06 01:59:11;;;;;;;;;;;;;;;3.37;100.00;102062.69;5062493;28;19928;-78
2022/12/06 02:01:37;;;;;;;;;;;;;;;3.37;100.00;102062.69;5057770;28;20292;-78
2022/12/06 02:04:03;;;;;;;;;;;;;;;3.37;100.00;102065.28;5061485;28;19932;-78
2022/12/06 02:06:29;;;;;;;;;;;;;;;3.37;100.00;102059.16;5064979;28;20540;-78
2022/12/06 02:08:54;;;;;;;;;;;;;;;3.37;100.00;102053.94;5063859;28;20307;-78
2022/12/06 02:11:20;;;;;;;;;;;;;;;3.36;100.00;102055.69;5063140;28;19928;-78
2022/12/06 02:13:45;;;;;;;;;;;;;;;3.37;100.00;102060.06;5057934;28;19925;-79
2022/12/06 02:16:23;;;;;;;;;;;;;;;3.38;100.00;102060.94;5062954;28;19924;-78
2022/12/06 02:18:50;;;;;;;;;;;;;;;3.38;100.00;102051.31;5067503;28;19928;-78
2022/12/06 02:21:21;;;;;;;;;;;;;;;3.38;100.00;102051.31;5062771;28;19958;-78
2022/12/06 02:23:53;;;;;;;;;;;;;;;3.37;100.00;102057.44;5060435;28;19977;-78
2022/12/06 02:26:18;;;;;;;;;;;;;;;3.38;100.00;102060.94;5061145;28;19960;-78
2022/12/06 02:28:59;;;;;;;;;;;;;;;3.37;100.00;102054.81;5065174;28;20014;-78
2022/12/06 02:31:28;;;;;;;;;;;;;;;3.37;100.00;102052.19;5062065;28;19928;-78
2022/12/06 02:33:53;;;;;;;;;;;;;;;3.37;100.00;102057.44;5064860;28;19967;-78
2022/12/06 02:36:19;;;;;;;;;;;;;;;3.39;100.00;102060.94;5064983;28;20609;-78
2022/12/06 02:38:58;;;;;;;;;;;;;;;3.40;100.00;102059.19;5062019;28;20518;-78
2022/12/06 02:41:25;;;;;;;;;;;;;;;3.40;100.00;102059.19;5061734;28;19948;-78
2022/12/06 02:43:52;;;;;;;;;;;;;;;3.40;100.00;102065.28;5061693;28;20778;-78
2022/12/06 02:46:18;;;;;;;;;;;;;;;3.39;100.00;102055.69;5047439;28;20018;-78
2022/12/06 02:48:44;;;;;;;;;;;;;;;3.42;100.00;102064.44;5060006;28;19928;-77
2022/12/06 02:51:10;;;;;;;;;;;;;;;3.40;100.00;102065.28;5060821;28;20521;-77
2022/12/06 02:53:37;;;;;;;;;;;;;;;3.40;100.00;102053.97;5062343;28;19932;-77
2022/12/06 02:56:03;;;;;;;;;;;;;;;3.40;100.00;102057.44;5042733;28;20298;-77
2022/12/06 02:58:33;;;;;;;;;;;;;;;3.40;100.00;102054.81;5049172;28;19923;-77
2022/12/06 03:00:58;;;;;;;;;;;;;;;3.40;100.00;102056.59;5060178;28;19935;-77
2022/12/06 03:03:30;;;;;;;;;;;;;;;3.40;100.00;102046.97;5061605;28;20390;-77
2022/12/06 03:06:06;;;;;;;;;;;;;;;3.40;100.00;102057.44;5061040;28;19963;-78
2022/12/06 03:08:32;;;;;;;;;;;;;;;3.39;100.00;102055.69;5063507;28;19924;-77
2022/12/06 03:10:58;;;;;;;;;;;;;;;3.39;100.00;102050.44;5060340;28;19924;-77
2022/12/06 03:13:26;;;;;;;;;;;;;;;3.39;100.00;102060.94;5052932;28;20686;-77
2022/12/06 03:15:51;;;;;;;;;;;;;;;3.39;100.00;102054.84;5060821;28;19928;-77
2022/12/06 03:18:18;;;;;;;;;;;;;;;3.39;100.00;102052.22;5059337;28;19952;-77
2022/12/06 03:20:51;;;;;;;;;;;;;;;3.38;100.00;102051.31;5060837;28;19931;-77
2022/12/06 03:23:19;;;;;;;;;;;;;;;3.38;100.00;102048.72;5062376;28;19975;-77
2022/12/06 03:25:45;;;;;;;;;;;;;;;3.37;100.00;102039.13;5049537;28;20341;-77
2022/12/06 03:28:11;;;;;;;;;;;;;;;3.37;100.00;102039.13;5047588;28;20077;-77
2022/12/06 03:30:36;;;;;;;;;;;;;;;3.38;100.00;102043.47;5063251;28;20590;-77
2022/12/06 03:33:01;;;;;;;;;;;;;;;3.37;100.00;102036.50;5061878;28;20520;-77
2022/12/06 03:35:27;;;;;;;;;;;;;;;3.38;100.00;102038.25;5050140;28;19975;-77
2022/12/06 03:37:57;;;;;;;;;;;;;;;3.37;100.00;102043.47;5046237;28;19936;-77
2022/12/06 03:40:24;;;;;;;;;;;;;;;3.36;100.00;102036.47;5060859;28;19924;-78
2022/12/06 03:42:50;;;;;;;;;;;;;;;3.35;100.00;102039.97;5063055;28;19928;-77
2022/12/06 03:45:15;;;;;;;;;;;;;;;3.34;100.00;102044.34;5062655;28;19981;-77
2022/12/06 03:47:44;;;;;;;;;;;;;;;3.33;100.00;102037.34;5059364;28;19932;-77
2022/12/06 03:50:10;;;;;;;;;;;;;;;3.32;100.00;102040.84;5062108;28;19935;-77
2022/12/06 03:52:36;;;;;;;;;;;;;;;3.31;100.00;102031.22;5063229;28;19932;-77
2022/12/06 03:55:01;;;;;;;;;;;;;;;3.31;100.00;102030.38;5043273;28;19960;-78
2022/12/06 03:57:26;;;;;;;;;;;;;;;3.29;100.00;102030.38;5045531;28;19924;-77
2022/12/06 03:59:52;;;;;;;;;;;;;;;3.28;100.00;102031.22;5062988;28;20062;-77
2022/12/06 04:02:17;;;;;;;;;;;;;;;3.27;100.00;102026.84;5060850;28;20294;-76
2022/12/06 04:04:43;;;;;;;;;;;;;;;3.26;100.00;102014.63;5047150;28;19928;-77
2022/12/06 04:07:09;;;;;;;;;;;;;;;3.25;100.00;102020.72;5061236;28;19924;-77
2022/12/06 04:09:55;;;;;;;;;;;;;;;3.24;100.00;102013.75;5059373;28;19927;-76
2022/12/06 04:15:06;;;;;;;;;;;;;;;3.23;100.00;102012.00;5063714;28;20018;-77
2022/12/06 04:20:15;;;;;;;;;;;;;;;3.21;100.00;102016.38;5058406;28;19939;-77
2022/12/06 04:25:25;;;;;;;;;;;;;;;3.20;100.00;102011.97;5066719;28;20311;-77
2022/12/06 04:38:46;;;;;;;;;;;;;;;3.19;100.00;102013.75;5061484;28;19962;-77
2022/12/06 04:43:40;;;;;;;;;;;;;;;3.17;100.00;102011.97;5062158;28;19932;-77
2022/12/06 04:43:57;;;;;;;;;;;;;;;3.17;100.00;102009.38;5061238;28;19928;-78
2022/12/06 04:46:23;;;;;;;;;;;;;;;3.17;100.00;102014.59;5062433;28;20151;-78
2022/12/06 04:48:49;;;;;;;;;;;;;;;3.17;100.00;102014.59;5060114;28;20434;-78
2022/12/06 04:51:15;;;;;;;;;;;;;;;3.18;100.00;102011.09;5061171;28;20344;-78
2022/12/06 04:53:40;;;;;;;;;;;;;;;3.18;100.00;102003.25;5044947;28;22016;-78
2022/12/06 04:56:06;;;;;;;;;;;;;;;3.18;100.00;102011.09;5056901;28;20009;-78
2022/12/06 04:58:31;;;;;;;;;;;;;;;3.18;100.00;102000.63;5057976;28;19928;-78
2022/12/06 05:00:57;;;;;;;;;;;;;;;3.17;100.00;102007.63;5060089;28;20379;-78
2022/12/06 05:03:22;;;;;;;;;;;;;;;3.16;100.00;101998.00;5058143;28;20029;-78
2022/12/06 05:05:48;;;;;;;;;;;;;;;3.17;100.00;102002.41;5057774;28;19940;-78
2022/12/06 05:08:16;;;;;;;;;;;;;;;3.17;100.00;101998.91;5061176;28;19933;-78
2022/12/06 05:10:45;;;;;;;;;;;;;;;3.17;100.00;101999.78;5060501;28;19963;-78
2022/12/06 05:13:10;;;;;;;;;;;;;;;3.17;100.00;101999.78;5061165;28;19974;-78
2022/12/06 05:15:36;;;;;;;;;;;;;;;3.16;100.00;101991.91;5043035;28;19936;-78
2022/12/06 05:18:01;;;;;;;;;;;;;;;3.16;100.00;101992.78;5059488;28;20011;-78
2022/12/06 05:20:27;;;;;;;;;;;;;;;3.16;100.00;101994.53;5059191;28;19985;-78
2022/12/06 05:22:52;;;;;;;;;;;;;;;3.15;100.00;101992.78;5061780;28;19932;-78
2022/12/06 05:25:18;;;;;;;;;;;;;;;3.16;100.00;101997.16;5061146;28;20015;-78
2022/12/06 05:27:43;;;;;;;;;;;;;;;3.14;100.00;101983.19;5059074;28;19932;-78
2022/12/06 05:30:09;;;;;;;;;;;;;;;3.14;100.00;101977.97;5058350;28;19929;-78
2022/12/06 05:32:34;;;;;;;;;;;;;;;3.12;100.00;101973.56;5056442;28;19928;-78
2022/12/06 05:35:00;;;;;;;;;;;;;;;3.10;100.00;101966.56;5059835;28;19928;-79
2022/12/06 05:37:25;;;;;;;;;;;;;;;3.07;100.00;101977.03;5063385;28;19956;-78
2022/12/06 05:39:50;;;;;;;;;;;;;;;3.04;100.00;101982.28;5061019;28;19947;-78
2022/12/06 05:42:16;;;;;;;;;;;;;;;2.99;100.00;101982.22;5063766;28;19963;-78
2022/12/06 05:44:42;;;;;;;;;;;;;;;2.96;100.00;101982.22;5056254;28;19932;-78
2022/12/06 05:47:08;;;;;;;;;;;;;;;2.90;100.00;101977.84;5066430;28;20388;-78
2022/12/06 05:49:33;;;;;;;;;;;;;;;2.84;100.00;101980.44;5063191;28;20009;-78
2022/12/06 05:51:58;;;;;;;;;;;;;;;2.80;100.00;101976.06;5064909;28;20375;-78
2022/12/06 05:54:27;;;;;;;;;;;;;;;2.73;100.00;101983.00;5064562;28;20290;-78
2022/12/06 05:56:52;;;;;;;;;;;;;;;2.67;100.00;101977.72;5068998;28;19932;-78
2022/12/06 05:59:17;;;;;;;;;;;;;;;2.60;100.00;101981.19;5058701;28;19928;-78
2022/12/06 06:01:43;;;;;;;;;;;;;;;2.51;100.00;101977.63;5063506;28;19928;-78
2022/12/06 06:04:08;;;;;;;;;;;;;;;2.42;100.00;101981.06;5061588;28;19959;-78
2022/12/06 06:06:33;;;;;;;;;;;;;;;2.34;100.00;101979.25;5063917;27;20608;-78
2022/12/06 06:08:59;;;;;;;;;;;;;;;2.26;100.00;101976.59;5064093;28;19924;-78
2022/12/06 06:11:25;;;;;;;;;;;;;;;2.19;100.00;101972.16;5063222;28;20009;-78
2022/12/06 06:13:50;;;;;;;;;;;;;;;2.13;100.00;101979.09;5066374;28;19931;-78
2022/12/06 06:16:16;;;;;;;;;;;;;;;2.07;100.00;101975.56;5065565;28;20403;-78
2022/12/06 06:18:41;;;;;;;;;;;;;;;2.00;100.00;101978.13;5064988;27;19929;-78
2022/12/06 06:21:06;;;;;;;;;;;;;;;1.94;100.00;101980.69;5066242;28;19953;-78
2022/12/06 06:23:34;;;;;;;;;;;;;;;1.87;100.00;101984.09;5068073;28;20612;-78
2022/12/06 06:25:59;;;;;;;;;;;;;;;1.80;100.00;101977.06;5063498;28;19935;-78
2022/12/06 06:28:25;;;;;;;;;;;;;;;1.78;100.00;101976.19;5061917;28;19932;-78
2022/12/06 06:30:50;;;;;;;;;;;;;;;1.75;100.00;101977.91;5027334;28;19953;-78
2022/12/06 06:33:16;;;;;;;;;;;;;;;1.75;100.00;101977.91;5063748;28;19935;-78
2022/12/06 06:35:41;;;;;;;;;;;;;;;1.73;100.00;101987.47;5065360;28;20413;-78
2022/12/06 06:38:07;;;;;;;;;;;;;;;1.71;100.00;101985.69;5065050;28;20544;-79
2022/12/06 06:40:32;;;;;;;;;;;;;;;1.68;100.00;101986.53;5061004;28;19939;-78
2022/12/06 06:43:16;;;;;;;;;;;;;;;1.66;100.00;101990.88;5057592;28;19986;-78
2022/12/06 06:45:42;;;;;;;;;;;;;;;1.65;100.00;101985.63;5062945;28;19932;-76
2022/12/06 06:48:07;;;;;;;;;;;;;;;1.65;100.00;101988.25;5061148;28;19974;-76
2022/12/06 06:50:33;;;;;;;;;;;;;;;1.62;100.00;101981.25;5063697;28;19929;-76
2022/12/06 06:52:58;;;;;;;;;;;;;;;1.59;100.00;101973.41;5068878;28;20071;-76
2022/12/06 06:55:24;;;;;;;;;;;;;;;1.58;100.00;101979.47;5063454;28;20415;-76
2022/12/06 06:57:49;;;;;;;;;;;;;;;1.56;100.00;101974.25;5063059;28;19971;-76
2022/12/06 07:00:15;;;;;;;;;;;;;;;1.56;100.00;101968.13;5066144;28;20458;-76
2022/12/06 07:02:41;;;;;;;;;;;;;;;1.55;100.00;101976.81;5046918;28;20472;-76
2022/12/06 07:05:06;;;;;;;;;;;;;;;1.54;100.00;101978.56;5047559;28;19932;-77
2022/12/06 07:07:31;;;;;;;;;;;;;;;1.56;100.00;101974.25;5062710;28;20339;-76
2022/12/06 07:09:57;;;;;;;;;;;;;;;1.59;100.00;101973.41;5044816;28;20385;-77
2022/12/06 07:12:22;;;;;;;;;;;;;;;1.60;100.00;101975.16;5061518;28;20352;-77
2022/12/06 07:14:48;;;;;;;;;;;;;;;1.62;100.00;101974.31;5060651;28;20359;-77
2022/12/06 07:17:16;;;;;;;;;;;;;;;1.63;100.00;101980.38;5056384;28;19970;-76
2022/12/06 07:19:41;;;;;;;;;;;;;;;1.63;100.00;101975.16;5062537;28;19951;-76
2022/12/06 07:22:08;;;;;;;;;;;;;;;1.63;100.00;101980.38;5061752;27;19962;-76
2022/12/06 07:24:34;;;;;;;;;;;;;;;1.62;100.00;101976.03;5064796;28;19990;-76
2022/12/06 07:27:00;;;;;;;;;;;;;;;1.62;100.00;101970.81;5064982;28;20027;-76
2022/12/06 07:29:25;;;;;;;;;;;;;;;1.63;100.00;101975.16;5046813;28;20520;-76
2022/12/06 07:31:51;;;;;;;;;;;;;;;1.62;100.00;101976.03;5063450;28;19935;-76
2022/12/06 07:34:16;;;;;;;;;;;;;;;1.63;100.00;101980.38;5058535;28;19939;-76
2022/12/06 07:36:42;;;;;;;;;;;;;;;1.62;100.00;101976.91;5062411;28;19940;-76
2022/12/06 07:39:07;;;;;;;;;;;;;;;1.64;100.00;101969.09;5059810;28;19939;-76
2022/12/06 07:47:01;;;;;;;;;;;;;;;1.71;100.00;101983.09;5063795;28;19928;-76
2022/12/06 07:49:26;;;;;;;;;;;;;;;1.74;100.00;101977.91;5061795;28;19977;-77
2022/12/06 07:51:52;;;;;;;;;;;;;;;1.75;100.00;101977.91;5060652;28;19924;-77
2022/12/06 07:54:17;;;;;;;;;;;;;;;1.78;100.00;101978.81;5060597;28;20390;-77
2022/12/06 07:56:43;;;;;;;;;;;;;;;1.78;100.00;101982.28;5074399;28;19960;-77
2022/12/06 07:59:08;;;;;;;;;;;;;;;1.79;100.00;101978.81;5063263;28;20382;-77
2022/12/06 08:01:34;;;;;;;;;;;;;;;1.79;100.00;101975.34;5031529;28;20455;-77
2022/12/06 08:04:00;;;;;;;;;;;;;;;1.79;100.00;101977.94;5056174;28;20274;-79
2022/12/06 08:06:25;;;;;;;;;;;;;;;1.79;100.00;101977.94;5057307;28;19927;-76
2022/12/06 08:08:51;;;;;;;;;;;;;;;1.81;100.00;101974.50;5059434;28;20322;-76
2022/12/06 08:11:16;;;;;;;;;;;;;;;1.83;100.00;101975.38;5056982;28;20647;-76
2022/12/06 08:13:42;;;;;;;;;;;;;;;1.85;100.00;101975.41;5062556;28;19954;-76
2022/12/06 08:16:08;;;;;;;;;;;;;;;1.87;100.00;101982.34;5061867;28;20605;-76
2022/12/06 08:18:34;;;;;;;;;;;;;;;1.89;100.00;101972.81;5049219;28;20477;-76
2022/12/06 08:20:59;;;;;;;;;;;;;;;1.92;100.00;101971.97;5060902;28;19985;-76
2022/12/06 08:23:25;;;;;;;;;;;;;;;1.95;100.00;101971.97;5052402;28;19932;-76
2022/12/06 08:25:57;;;;;;;;;;;;;;;1.99;100.00;101984.22;5061088;28;20386;-75
2022/12/06 08:28:23;;;;;;;;;;;;;;;2.04;100.00;101976.41;5059626;28;19928;-76
2022/12/06 08:30:48;;;;;;;;;;;;;;;2.08;100.00;101975.59;5062351;28;19931;-76
2022/12/06 08:33:14;;;;;;;;;;;;;;;2.13;100.00;101970.41;5058911;28;19924;-76
2022/12/06 08:35:39;;;;;;;;;;;;;;;2.17;100.00;101974.75;5062910;28;19924;-76
2022/12/06 08:38:05;;;;;;;;;;;;;;;2.20;100.00;101971.31;5059296;28;19931;-76
2022/12/06 08:40:33;;;;;;;;;;;;;;;2.23;100.00;101964.38;5057025;28;20027;-76
2022/12/06 08:42:58;;;;;;;;;;;;;;;2.26;100.00;101964.41;5058622;28;20524;-76
2022/12/06 08:45:23;;;;;;;;;;;;;;;2.28;100.00;101953.94;5065598;28;20023;-75
2022/12/06 08:47:49;;;;;;;;;;;;;;;2.30;100.00;101958.31;5066079;28;19928;-76
2022/12/06 08:50:14;;;;;;;;;;;;;;;2.34;100.00;101959.22;5058155;28;20624;-76
2022/12/06 08:52:40;;;;;;;;;;;;;;;2.35;100.00;101965.31;5059081;28;20396;-76
2022/12/06 08:55:08;;;;;;;;;;;;;;;2.35;100.00;101960.09;5060983;28;19924;-77
2022/12/06 08:57:34;;;;;;;;;;;;;;;2.34;100.00;101961.81;5063338;28;20175;-76
2022/12/06 08:59:59;;;;;;;;;;;;;;;2.34;100.00;101958.34;5061004;28;20371;-76
2022/12/06 09:02:25;;;;;;;;;;;;;;;2.30;100.00;101952.22;5057913;28;20429;-76
2022/12/06 09:04:50;;;;;;;;;;;;;;;2.30;100.00;101954.84;5059073;28;20387;-77
2022/12/06 09:07:16;;;;;;;;;;;;;;;2.30;100.00;101963.53;5061597;28;20299;-77
2022/12/06 09:09:41;;;;;;;;;;;;;;;2.30;100.00;101958.31;5061807;28;19955;-77
2022/12/06 09:12:07;;;;;;;;;;;;;;;2.34;100.00;101953.13;5060039;28;19935;-77
2022/12/06 09:14:32;;;;;;;;;;;;;;;2.36;100.00;101951.38;5060436;28;20361;-76
2022/12/06 09:16:58;;;;;;;;;;;;;;;2.40;100.00;101950.56;5046712;28;19929;-76
2022/12/06 09:19:23;;;;;;;;;;;;;;;2.44;100.00;101944.47;5048289;28;19928;-76
2022/12/06 09:21:48;;;;;;;;;;;;;;;2.49;100.00;101948.00;5063175;28;19931;-77
2022/12/06 09:24:15;;;;;;;;;;;;;;;2.56;100.00;101947.16;5071218;28;19931;-76
2022/12/06 09:26:40;;;;;;;;;;;;;;;2.63;100.00;101939.34;5051821;28;19967;-77
2022/12/06 09:29:06;;;;;;;;;;;;;;;2.71;100.00;101937.63;5050408;28;20419;-77
2022/12/06 09:31:32;;;;;;;;;;;;;;;2.79;100.00;101940.31;5064568;28;20018;-78
2022/12/06 09:34:00;;;;;;;;;;;;;;;2.85;100.00;101938.56;5063915;28;19932;-83
2022/12/06 09:36:26;;;;;;;;;;;;;;;2.91;100.00;101944.69;5063481;28;19992;-78
2022/12/06 09:38:56;;;;;;;;;;;;;;;2.97;100.00;101947.34;5061723;28;20014;-77
2022/12/06 09:41:22;;;;;;;;;;;;;;;3.04;100.00;101946.50;5049232;28;22034;-78
2022/12/06 09:43:50;;;;;;;;;;;;;;;3.09;100.00;101946.50;5045782;28;19924;-77
2022/12/06 09:46:34;;;;;;;;;;;;;;;3.17;100.00;101949.16;5056281;28;19924;-77
2022/12/06 09:49:18;;;;;;;;;;;;;;;3.22;100.00;101943.06;5060126;28;20432;-77
